sensor_id;sensor_type;location;lat;lon;timestamp;temperature;humidity
22288;DHT22;11312;51.464;6.968;2023-03-23T00:01:53;11.60;99.90
22288;DHT22;11312;51.464;6.968;2023-03-23T00:04:19;11.70;99.90
22288;DHT22;11312;51.464;6.968;2023-03-23T00:06:46;11.80;99.90
22288;DHT22;11312;51.464;6.968;2023-03-23T00:09:13;11.80;99.90
22288;DHT22;11312;51.464;6.968;2023-03-23T00:11:41;11.90;99.90
22288;DHT22;11312;51.464;6.968;2023-03-23T00:14:07;11.90;99.90
22288;DHT22;11312;51.464;6.968;2023-03-23T00:16:39;11.90;99.90
22288;DHT22;11312;51.464;6.968;2023-03-23T00:19:11;11.80;99.90
22288;DHT22;11312;51.464;6.968;2023-03-23T00:21:41;11.80;99.90
22288;DHT22;11312;51.464;6.968;2023-03-23T00:24:16;11.90;99.90
22288;DHT22;11312;51.464;6.968;2023-03-23T00:26:43;12.00;99.90
22288;DHT22;11312;51.464;6.968;2023-03-23T00:29:14;12.00;99.90
22288;DHT22;11312;51.464;6.968;2023-03-23T00:31:42;12.10;99.90
22288;DHT22;11312;51.464;6.968;2023-03-23T00:34:17;12.00;99.90
22288;DHT22;11312;51.464;6.968;2023-03-23T00:36:45;12.10;99.90
22288;DHT22;11312;51.464;6.968;2023-03-23T00:39:11;12.10;99.90
22288;DHT22;11312;51.464;6.968;2023-03-23T00:41:37;12.10;99.90
22288;DHT22;11312;51.464;6.968;2023-03-23T00:44:04;12.10;99.90
22288;DHT22;11312;51.464;6.968;2023-03-23T00:46:30;12.30;99.90
22288;DHT22;11312;51.464;6.968;2023-03-23T00:48:56;12.20;99.90
22288;DHT22;11312;51.464;6.968;2023-03-23T00:51:23;12.40;99.90
22288;DHT22;11312;51.464;6.968;2023-03-23T00:53:49;12.30;99.90
22288;DHT22;11312;51.464;6.968;2023-03-23T00:56:15;12.40;99.90
22288;DHT22;11312;51.464;6.968;2023-03-23T00:58:41;12.30;99.90
22288;DHT22;11312;51.464;6.968;2023-03-23T01:01:07;12.40;99.90
22288;DHT22;11312;51.464;6.968;2023-03-23T01:03:34;12.40;99.90
22288;DHT22;11312;51.464;6.968;2023-03-23T01:06:09;12.40;99.90
22288;DHT22;11312;51.464;6.968;2023-03-23T01:08:39;12.40;99.90
22288;DHT22;11312;51.464;6.968;2023-03-23T01:11:15;12.50;99.90
22288;DHT22;11312;51.464;6.968;2023-03-23T01:13:43;12.40;99.90
22288;DHT22;11312;51.464;6.968;2023-03-23T01:16:10;12.30;99.90
22288;DHT22;11312;51.464;6.968;2023-03-23T01:18:36;12.50;99.90
22288;DHT22;11312;51.464;6.968;2023-03-23T01:21:10;12.50;99.90
22288;DHT22;11312;51.464;6.968;2023-03-23T01:23:36;12.50;99.90
22288;DHT22;11312;51.464;6.968;2023-03-23T01:26:06;12.50;99.90
22288;DHT22;11312;51.464;6.968;2023-03-23T01:28:33;12.40;99.90
22288;DHT22;11312;51.464;6.968;2023-03-23T01:31:00;12.40;99.90
22288;DHT22;11312;51.464;6.968;2023-03-23T01:33:27;12.40;99.90
22288;DHT22;11312;51.464;6.968;2023-03-23T01:35:52;12.40;99.90
22288;DHT22;11312;51.464;6.968;2023-03-23T01:38:18;12.60;99.90
22288;DHT22;11312;51.464;6.968;2023-03-23T01:40:44;12.50;99.90
22288;DHT22;11312;51.464;6.968;2023-03-23T01:43:14;12.40;99.90
22288;DHT22;11312;51.464;6.968;2023-03-23T01:45:41;12.60;99.90
22288;DHT22;11312;51.464;6.968;2023-03-23T01:48:28;12.50;99.90
22288;DHT22;11312;51.464;6.968;2023-03-23T01:51:04;12.50;99.90
22288;DHT22;11312;51.464;6.968;2023-03-23T01:53:47;12.50;99.90
22288;DHT22;11312;51.464;6.968;2023-03-23T01:56:16;12.50;99.90
22288;DHT22;11312;51.464;6.968;2023-03-23T01:58:44;12.40;99.90
22288;DHT22;11312;51.464;6.968;2023-03-23T02:01:13;12.50;99.90
22288;DHT22;11312;51.464;6.968;2023-03-23T02:03:43;12.50;99.90
22288;DHT22;11312;51.464;6.968;2023-03-23T02:06:10;12.50;99.90
22288;DHT22;11312;51.464;6.968;2023-03-23T02:08:36;12.50;99.90
22288;DHT22;11312;51.464;6.968;2023-03-23T02:11:18;12.50;99.90
22288;DHT22;11312;51.464;6.968;2023-03-23T02:13:44;12.40;99.90
22288;DHT22;11312;51.464;6.968;2023-03-23T02:35:45;12.10;99.90
22288;DHT22;11312;51.464;6.968;2023-03-23T02:38:18;12.10;99.90
22288;DHT22;11312;51.464;6.968;2023-03-23T02:40:47;12.00;99.90
22288;DHT22;11312;51.464;6.968;2023-03-23T02:43:18;12.00;99.90
22288;DHT22;11312;51.464;6.968;2023-03-23T02:45:46;12.00;99.90
22288;DHT22;11312;51.464;6.968;2023-03-23T02:48:14;12.00;99.90
22288;DHT22;11312;51.464;6.968;2023-03-23T02:50:44;12.00;99.90
22288;DHT22;11312;51.464;6.968;2023-03-23T02:53:13;12.00;99.90
22288;DHT22;11312;51.464;6.968;2023-03-23T02:55:42;12.10;99.90
22288;DHT22;11312;51.464;6.968;2023-03-23T02:58:10;12.00;99.90
22288;DHT22;11312;51.464;6.968;2023-03-23T03:00:36;12.00;99.90
22288;DHT22;11312;51.464;6.968;2023-03-23T03:03:04;12.00;99.90
22288;DHT22;11312;51.464;6.968;2023-03-23T03:11:09;11.90;99.90
22288;DHT22;11312;51.464;6.968;2023-03-23T03:13:45;11.90;99.90
22288;DHT22;11312;51.464;6.968;2023-03-23T03:19:20;12.00;99.90
22288;DHT22;11312;51.464;6.968;2023-03-23T03:21:52;11.90;99.90
22288;DHT22;11312;51.464;6.968;2023-03-23T03:24:21;12.00;99.90
22288;DHT22;11312;51.464;6.968;2023-03-23T03:26:51;12.00;99.90
22288;DHT22;11312;51.464;6.968;2023-03-23T03:29:21;12.00;99.90
22288;DHT22;11312;51.464;6.968;2023-03-23T03:31:49;12.00;99.90
22288;DHT22;11312;51.464;6.968;2023-03-23T03:34:16;12.10;99.90
22288;DHT22;11312;51.464;6.968;2023-03-23T03:36:47;12.10;99.90
22288;DHT22;11312;51.464;6.968;2023-03-23T03:39:16;12.10;99.90
22288;DHT22;11312;51.464;6.968;2023-03-23T03:41:43;12.10;99.90
22288;DHT22;11312;51.464;6.968;2023-03-23T03:44:09;12.10;99.90
22288;DHT22;11312;51.464;6.968;2023-03-23T03:46:36;12.10;99.90
22288;DHT22;11312;51.464;6.968;2023-03-23T03:49:04;12.10;99.90
22288;DHT22;11312;51.464;6.968;2023-03-23T03:51:31;12.20;99.90
22288;DHT22;11312;51.464;6.968;2023-03-23T03:53:57;12.20;99.90
22288;DHT22;11312;51.464;6.968;2023-03-23T03:56:24;12.10;99.90
22288;DHT22;11312;51.464;6.968;2023-03-23T03:58:50;12.20;99.90
22288;DHT22;11312;51.464;6.968;2023-03-23T04:01:17;12.20;99.90
22288;DHT22;11312;51.464;6.968;2023-03-23T04:03:44;12.20;99.90
22288;DHT22;11312;51.464;6.968;2023-03-23T04:06:10;12.20;99.90
22288;DHT22;11312;51.464;6.968;2023-03-23T04:08:36;12.20;99.90
22288;DHT22;11312;51.464;6.968;2023-03-23T04:11:03;12.20;99.90
22288;DHT22;11312;51.464;6.968;2023-03-23T04:13:30;12.20;99.90
22288;DHT22;11312;51.464;6.968;2023-03-23T04:15:56;12.20;99.90
22288;DHT22;11312;51.464;6.968;2023-03-23T04:18:22;12.20;99.90
22288;DHT22;11312;51.464;6.968;2023-03-23T04:20:48;12.20;99.90
22288;DHT22;11312;51.464;6.968;2023-03-23T04:23:15;12.20;99.90
22288;DHT22;11312;51.464;6.968;2023-03-23T04:25:49;12.20;99.90
22288;DHT22;11312;51.464;6.968;2023-03-23T04:28:16;12.20;99.90
22288;DHT22;11312;51.464;6.968;2023-03-23T04:30:44;12.20;99.90
22288;DHT22;11312;51.464;6.968;2023-03-23T04:33:11;12.20;99.90
22288;DHT22;11312;51.464;6.968;2023-03-23T04:35:43;12.20;99.90
22288;DHT22;11312;51.464;6.968;2023-03-23T04:38:12;12.20;99.90
22288;DHT22;11312;51.464;6.968;2023-03-23T04:40:40;12.20;99.90
22288;DHT22;11312;51.464;6.968;2023-03-23T04:43:06;12.30;99.90
22288;DHT22;11312;51.464;6.968;2023-03-23T04:45:35;12.40;99.90
22288;DHT22;11312;51.464;6.968;2023-03-23T04:48:04;12.40;99.90
22288;DHT22;11312;51.464;6.968;2023-03-23T04:50:31;12.30;99.90
22288;DHT22;11312;51.464;6.968;2023-03-23T04:52:58;12.30;99.90
22288;DHT22;11312;51.464;6.968;2023-03-23T04:55:32;12.30;99.90
22288;DHT22;11312;51.464;6.968;2023-03-23T04:58:03;12.30;99.90
22288;DHT22;11312;51.464;6.968;2023-03-23T05:00:29;12.40;99.90
22288;DHT22;11312;51.464;6.968;2023-03-23T05:02:55;12.40;99.90
22288;DHT22;11312;51.464;6.968;2023-03-23T05:05:22;12.40;99.90
22288;DHT22;11312;51.464;6.968;2023-03-23T05:07:48;12.50;99.90
22288;DHT22;11312;51.464;6.968;2023-03-23T05:10:15;12.50;99.90
22288;DHT22;11312;51.464;6.968;2023-03-23T05:12:41;12.50;99.90
22288;DHT22;11312;51.464;6.968;2023-03-23T05:15:11;12.40;99.90
22288;DHT22;11312;51.464;6.968;2023-03-23T05:17:37;12.50;99.90
22288;DHT22;11312;51.464;6.968;2023-03-23T05:20:04;12.50;99.90
22288;DHT22;11312;51.464;6.968;2023-03-23T05:22:33;12.50;99.90
22288;DHT22;11312;51.464;6.968;2023-03-23T05:24:59;12.50;99.90
22288;DHT22;11312;51.464;6.968;2023-03-23T05:27:28;12.50;99.90
22288;DHT22;11312;51.464;6.968;2023-03-23T05:29:56;12.40;99.90
22288;DHT22;11312;51.464;6.968;2023-03-23T05:32:26;12.50;99.90
22288;DHT22;11312;51.464;6.968;2023-03-23T05:34:58;12.40;99.90
22288;DHT22;11312;51.464;6.968;2023-03-23T05:37:24;12.50;99.90
22288;DHT22;11312;51.464;6.968;2023-03-23T05:39:52;12.50;99.90
22288;DHT22;11312;51.464;6.968;2023-03-23T05:42:20;12.50;99.90
22288;DHT22;11312;51.464;6.968;2023-03-23T05:44:46;12.60;99.90
22288;DHT22;11312;51.464;6.968;2023-03-23T05:47:12;12.50;99.90
22288;DHT22;11312;51.464;6.968;2023-03-23T05:49:38;12.50;99.90
22288;DHT22;11312;51.464;6.968;2023-03-23T05:52:04;12.50;99.90
22288;DHT22;11312;51.464;6.968;2023-03-23T05:54:29;12.60;99.90
22288;DHT22;11312;51.464;6.968;2023-03-23T05:56:55;12.70;99.90
22288;DHT22;11312;51.464;6.968;2023-03-23T05:59:21;12.60;99.90
22288;DHT22;11312;51.464;6.968;2023-03-23T06:01:46;12.60;99.90
22288;DHT22;11312;51.464;6.968;2023-03-23T06:04:12;12.60;99.90
22288;DHT22;11312;51.464;6.968;2023-03-23T06:06:39;12.50;99.90
22288;DHT22;11312;51.464;6.968;2023-03-23T06:09:06;12.60;99.90
22288;DHT22;11312;51.464;6.968;2023-03-23T06:11:32;12.60;99.90
22288;DHT22;11312;51.464;6.968;2023-03-23T06:13:58;12.50;99.90
22288;DHT22;11312;51.464;6.968;2023-03-23T06:16:24;12.60;99.90
22288;DHT22;11312;51.464;6.968;2023-03-23T06:18:50;12.50;99.90
22288;DHT22;11312;51.464;6.968;2023-03-23T06:21:16;12.60;99.90
22288;DHT22;11312;51.464;6.968;2023-03-23T06:23:45;12.60;99.90
22288;DHT22;11312;51.464;6.968;2023-03-23T06:26:12;12.70;99.90
22288;DHT22;11312;51.464;6.968;2023-03-23T06:28:39;12.60;99.90
22288;DHT22;11312;51.464;6.968;2023-03-23T06:31:06;12.70;99.90
22288;DHT22;11312;51.464;6.968;2023-03-23T06:33:36;12.70;99.90
22288;DHT22;11312;51.464;6.968;2023-03-23T06:36:03;12.80;99.90
22288;DHT22;11312;51.464;6.968;2023-03-23T06:38:30;12.80;99.90
22288;DHT22;11312;51.464;6.968;2023-03-23T06:40:57;12.80;99.90
22288;DHT22;11312;51.464;6.968;2023-03-23T06:43:23;12.80;99.90
22288;DHT22;11312;51.464;6.968;2023-03-23T06:45:50;12.80;99.90
22288;DHT22;11312;51.464;6.968;2023-03-23T06:48:16;12.80;99.90
22288;DHT22;11312;51.464;6.968;2023-03-23T06:50:43;12.80;99.90
22288;DHT22;11312;51.464;6.968;2023-03-23T06:53:10;12.80;99.90
22288;DHT22;11312;51.464;6.968;2023-03-23T06:55:36;12.90;99.90
22288;DHT22;11312;51.464;6.968;2023-03-23T06:58:03;12.90;99.90
22288;DHT22;11312;51.464;6.968;2023-03-23T07:00:29;13.00;99.90
22288;DHT22;11312;51.464;6.968;2023-03-23T07:02:55;12.90;99.90
22288;DHT22;11312;51.464;6.968;2023-03-23T07:05:21;13.00;99.90
22288;DHT22;11312;51.464;6.968;2023-03-23T07:07:47;13.00;99.90
22288;DHT22;11312;51.464;6.968;2023-03-23T07:10:12;13.00;99.90
22288;DHT22;11312;51.464;6.968;2023-03-23T07:12:38;13.00;99.90
22288;DHT22;11312;51.464;6.968;2023-03-23T07:15:06;13.00;99.90
22288;DHT22;11312;51.464;6.968;2023-03-23T07:17:33;13.00;99.90
22288;DHT22;11312;51.464;6.968;2023-03-23T07:19:59;13.00;99.90
22288;DHT22;11312;51.464;6.968;2023-03-23T07:22:24;13.00;99.90
22288;DHT22;11312;51.464;6.968;2023-03-23T07:24:50;13.00;99.90
22288;DHT22;11312;51.464;6.968;2023-03-23T07:27:16;13.00;99.90
22288;DHT22;11312;51.464;6.968;2023-03-23T07:29:41;13.00;99.90
22288;DHT22;11312;51.464;6.968;2023-03-23T07:32:10;13.10;99.90
22288;DHT22;11312;51.464;6.968;2023-03-23T07:34:37;13.00;99.90
22288;DHT22;11312;51.464;6.968;2023-03-23T07:37:04;13.10;99.90
22288;DHT22;11312;51.464;6.968;2023-03-23T07:39:30;13.00;99.90
22288;DHT22;11312;51.464;6.968;2023-03-23T07:41:55;13.10;99.90
22288;DHT22;11312;51.464;6.968;2023-03-23T07:44:21;13.10;99.90
22288;DHT22;11312;51.464;6.968;2023-03-23T07:46:47;13.10;99.90
22288;DHT22;11312;51.464;6.968;2023-03-23T07:49:13;13.10;99.90
22288;DHT22;11312;51.464;6.968;2023-03-23T07:51:39;13.00;99.90
22288;DHT22;11312;51.464;6.968;2023-03-23T07:54:06;13.00;99.90
22288;DHT22;11312;51.464;6.968;2023-03-23T07:56:36;13.00;99.90
22288;DHT22;11312;51.464;6.968;2023-03-23T07:59:03;13.00;99.90
22288;DHT22;11312;51.464;6.968;2023-03-23T08:01:30;13.00;99.90
22288;DHT22;11312;51.464;6.968;2023-03-23T08:03:56;13.10;99.90
22288;DHT22;11312;51.464;6.968;2023-03-23T08:06:24;12.90;99.90
22288;DHT22;11312;51.464;6.968;2023-03-23T08:08:50;13.10;99.90
22288;DHT22;11312;51.464;6.968;2023-03-23T08:11:16;13.10;99.90
22288;DHT22;11312;51.464;6.968;2023-03-23T08:13:42;13.10;99.90
22288;DHT22;11312;51.464;6.968;2023-03-23T08:16:09;13.20;99.90
22288;DHT22;11312;51.464;6.968;2023-03-23T08:18:35;13.30;99.90
22288;DHT22;11312;51.464;6.968;2023-03-23T08:21:02;13.30;99.90
22288;DHT22;11312;51.464;6.968;2023-03-23T08:23:31;13.40;99.90
22288;DHT22;11312;51.464;6.968;2023-03-23T08:25:56;13.40;99.90
22288;DHT22;11312;51.464;6.968;2023-03-23T08:28:22;13.60;99.90
22288;DHT22;11312;51.464;6.968;2023-03-23T08:30:48;13.50;99.90
22288;DHT22;11312;51.464;6.968;2023-03-23T08:33:15;13.60;99.90
22288;DHT22;11312;51.464;6.968;2023-03-23T08:35:41;13.70;99.90
22288;DHT22;11312;51.464;6.968;2023-03-23T08:38:08;13.80;99.90
22288;DHT22;11312;51.464;6.968;2023-03-23T08:40:33;13.80;99.90
22288;DHT22;11312;51.464;6.968;2023-03-23T08:42:59;14.00;99.90
22288;DHT22;11312;51.464;6.968;2023-03-23T08:45:25;14.00;99.90
22288;DHT22;11312;51.464;6.968;2023-03-23T08:47:52;13.90;99.90
22288;DHT22;11312;51.464;6.968;2023-03-23T08:50:25;14.00;99.90
22288;DHT22;11312;51.464;6.968;2023-03-23T08:52:53;14.10;99.90
22288;DHT22;11312;51.464;6.968;2023-03-23T08:55:19;14.10;99.90
22288;DHT22;11312;51.464;6.968;2023-03-23T08:57:45;14.20;99.90
22288;DHT22;11312;51.464;6.968;2023-03-23T09:00:15;14.00;99.90
22288;DHT22;11312;51.464;6.968;2023-03-23T09:02:49;14.00;99.90
22288;DHT22;11312;51.464;6.968;2023-03-23T09:05:19;14.00;99.90
22288;DHT22;11312;51.464;6.968;2023-03-23T09:07:50;14.00;99.90
22288;DHT22;11312;51.464;6.968;2023-03-23T09:10:16;13.90;99.90
22288;DHT22;11312;51.464;6.968;2023-03-23T09:12:43;13.80;99.90
22288;DHT22;11312;51.464;6.968;2023-03-23T09:15:11;13.70;99.90
22288;DHT22;11312;51.464;6.968;2023-03-23T09:17:40;13.60;99.90
22288;DHT22;11312;51.464;6.968;2023-03-23T09:20:08;13.60;99.90
22288;DHT22;11312;51.464;6.968;2023-03-23T09:22:42;13.60;99.90
22288;DHT22;11312;51.464;6.968;2023-03-23T09:25:09;13.60;99.90
22288;DHT22;11312;51.464;6.968;2023-03-23T09:27:36;13.50;99.90
22288;DHT22;11312;51.464;6.968;2023-03-23T09:30:06;13.60;99.90
22288;DHT22;11312;51.464;6.968;2023-03-23T09:32:34;13.70;99.90
22288;DHT22;11312;51.464;6.968;2023-03-23T09:35:01;13.70;99.90
22288;DHT22;11312;51.464;6.968;2023-03-23T09:37:27;13.60;99.90
22288;DHT22;11312;51.464;6.968;2023-03-23T09:39:53;13.60;99.90
22288;DHT22;11312;51.464;6.968;2023-03-23T09:42:30;13.50;99.90
22288;DHT22;11312;51.464;6.968;2023-03-23T09:47:55;13.40;99.90
22288;DHT22;11312;51.464;6.968;2023-03-23T09:50:27;13.80;99.90
22288;DHT22;11312;51.464;6.968;2023-03-23T09:53:01;13.40;99.90
22288;DHT22;11312;51.464;6.968;2023-03-23T09:55:28;13.20;99.90
22288;DHT22;11312;51.464;6.968;2023-03-23T09:58:45;13.10;99.90
22288;DHT22;11312;51.464;6.968;2023-03-23T10:01:12;12.00;99.90
22288;DHT22;11312;51.464;6.968;2023-03-23T10:03:41;11.50;99.90
22288;DHT22;11312;51.464;6.968;2023-03-23T10:06:11;11.40;99.90
22288;DHT22;11312;51.464;6.968;2023-03-23T10:08:41;11.40;99.90
22288;DHT22;11312;51.464;6.968;2023-03-23T10:17:37;11.40;99.90
22288;DHT22;11312;51.464;6.968;2023-03-23T10:23:23;11.20;99.90
22288;DHT22;11312;51.464;6.968;2023-03-23T10:26:22;11.20;99.90
22288;DHT22;11312;51.464;6.968;2023-03-23T10:28:55;11.30;99.90
22288;DHT22;11312;51.464;6.968;2023-03-23T10:31:27;11.10;99.90
22288;DHT22;11312;51.464;6.968;2023-03-23T10:33:57;11.10;99.90
22288;DHT22;11312;51.464;6.968;2023-03-23T10:37:04;11.00;99.90
22288;DHT22;11312;51.464;6.968;2023-03-23T10:39:44;10.90;99.90
22288;DHT22;11312;51.464;6.968;2023-03-23T10:42:11;11.30;99.90
22288;DHT22;11312;51.464;6.968;2023-03-23T10:44:37;11.40;99.90
22288;DHT22;11312;51.464;6.968;2023-03-23T10:47:08;11.20;99.90
22288;DHT22;11312;51.464;6.968;2023-03-23T10:55:15;11.60;99.90
22288;DHT22;11312;51.464;6.968;2023-03-23T10:57:59;11.70;99.90
22288;DHT22;11312;51.464;6.968;2023-03-23T11:00:27;11.40;99.90
22288;DHT22;11312;51.464;6.968;2023-03-23T11:06:46;10.90;99.90
22288;DHT22;11312;51.464;6.968;2023-03-23T11:08:54;11.00;99.90
22288;DHT22;11312;51.464;6.968;2023-03-23T11:11:31;10.80;99.90
22288;DHT22;11312;51.464;6.968;2023-03-23T11:14:35;10.80;99.90
22288;DHT22;11312;51.464;6.968;2023-03-23T11:17:18;11.00;99.90
22288;DHT22;11312;51.464;6.968;2023-03-23T11:19:45;11.10;99.90
22288;DHT22;11312;51.464;6.968;2023-03-23T11:22:31;10.70;99.90
22288;DHT22;11312;51.464;6.968;2023-03-23T11:25:03;10.70;99.90
22288;DHT22;11312;51.464;6.968;2023-03-23T11:27:29;10.80;99.90
22288;DHT22;11312;51.464;6.968;2023-03-23T11:30:20;10.70;99.90
22288;DHT22;11312;51.464;6.968;2023-03-23T11:32:47;10.60;99.90
22288;DHT22;11312;51.464;6.968;2023-03-23T11:35:26;10.80;99.90
22288;DHT22;11312;51.464;6.968;2023-03-23T11:37:57;10.60;99.90
22288;DHT22;11312;51.464;6.968;2023-03-23T11:40:29;10.60;99.90
22288;DHT22;11312;51.464;6.968;2023-03-23T11:42:59;11.00;99.90
22288;DHT22;11312;51.464;6.968;2023-03-23T11:45:54;10.80;99.90
22288;DHT22;11312;51.464;6.968;2023-03-23T11:51:18;11.00;99.90
22288;DHT22;11312;51.464;6.968;2023-03-23T11:56:38;11.40;99.90
22288;DHT22;11312;51.464;6.968;2023-03-23T11:59:16;11.70;99.90
22288;DHT22;11312;51.464;6.968;2023-03-23T12:02:16;11.60;99.90
22288;DHT22;11312;51.464;6.968;2023-03-23T12:10:27;11.20;99.90
22288;DHT22;11312;51.464;6.968;2023-03-23T12:13:03;11.00;99.90
22288;DHT22;11312;51.464;6.968;2023-03-23T12:15:43;10.80;99.90
22288;DHT22;11312;51.464;6.968;2023-03-23T12:27:00;11.10;99.90
22288;DHT22;11312;51.464;6.968;2023-03-23T12:44:02;11.80;99.90
22288;DHT22;11312;51.464;6.968;2023-03-23T12:49:20;12.10;99.90
22288;DHT22;11312;51.464;6.968;2023-03-23T13:03:02;12.30;99.90
22288;DHT22;11312;51.464;6.968;2023-03-23T13:05:39;12.60;99.90
22288;DHT22;11312;51.464;6.968;2023-03-23T13:08:16;12.90;99.90
22288;DHT22;11312;51.464;6.968;2023-03-23T13:10:47;13.10;99.90
22288;DHT22;11312;51.464;6.968;2023-03-23T13:13:18;12.90;99.90
22288;DHT22;11312;51.464;6.968;2023-03-23T13:23:35;12.80;99.90
22288;DHT22;11312;51.464;6.968;2023-03-23T13:26:09;14.20;99.90
22288;DHT22;11312;51.464;6.968;2023-03-23T13:31:14;14.90;99.90
22288;DHT22;11312;51.464;6.968;2023-03-23T13:33:46;16.20;99.90
22288;DHT22;11312;51.464;6.968;2023-03-23T13:36:16;14.80;99.90
22288;DHT22;11312;51.464;6.968;2023-03-23T13:38:48;13.70;99.90
22288;DHT22;11312;51.464;6.968;2023-03-23T13:41:17;13.10;99.90
22288;DHT22;11312;51.464;6.968;2023-03-23T13:43:44;13.00;99.90
22288;DHT22;11312;51.464;6.968;2023-03-23T13:48:47;12.60;99.90
22288;DHT22;11312;51.464;6.968;2023-03-23T13:56:54;13.10;99.90
22288;DHT22;11312;51.464;6.968;2023-03-23T14:01:56;13.60;99.90
22288;DHT22;11312;51.464;6.968;2023-03-23T14:04:30;13.40;99.90
22288;DHT22;11312;51.464;6.968;2023-03-23T14:06:57;13.30;99.90
22288;DHT22;11312;51.464;6.968;2023-03-23T14:09:31;13.20;99.90
22288;DHT22;11312;51.464;6.968;2023-03-23T14:14:39;13.50;99.90
22288;DHT22;11312;51.464;6.968;2023-03-23T14:17:17;13.40;99.90
22288;DHT22;11312;51.464;6.968;2023-03-23T14:19:47;13.60;99.90
22288;DHT22;11312;51.464;6.968;2023-03-23T14:22:26;13.90;99.90
22288;DHT22;11312;51.464;6.968;2023-03-23T14:25:09;13.70;99.90
22288;DHT22;11312;51.464;6.968;2023-03-23T14:27:35;14.30;99.90
22288;DHT22;11312;51.464;6.968;2023-03-23T14:30:06;14.60;99.90
22288;DHT22;11312;51.464;6.968;2023-03-23T14:32:32;16.50;99.90
22288;DHT22;11312;51.464;6.968;2023-03-23T14:35:05;17.70;99.90
22288;DHT22;11312;51.464;6.968;2023-03-23T14:37:32;18.00;99.90
22288;DHT22;11312;51.464;6.968;2023-03-23T14:39:58;18.20;99.90
22288;DHT22;11312;51.464;6.968;2023-03-23T14:42:30;17.60;99.90
22288;DHT22;11312;51.464;6.968;2023-03-23T14:44:57;17.90;99.90
22288;DHT22;11312;51.464;6.968;2023-03-23T14:47:35;18.90;99.90
22288;DHT22;11312;51.464;6.968;2023-03-23T14:50:04;18.00;99.90
22288;DHT22;11312;51.464;6.968;2023-03-23T14:52:35;16.20;99.90
22288;DHT22;11312;51.464;6.968;2023-03-23T14:55:30;15.70;99.90
22288;DHT22;11312;51.464;6.968;2023-03-23T14:58:08;15.00;99.90
22288;DHT22;11312;51.464;6.968;2023-03-23T15:01:07;15.90;99.90
22288;DHT22;11312;51.464;6.968;2023-03-23T15:03:37;15.40;99.90
22288;DHT22;11312;51.464;6.968;2023-03-23T15:06:16;15.00;99.90
22288;DHT22;11312;51.464;6.968;2023-03-23T15:08:43;14.40;99.90
22288;DHT22;11312;51.464;6.968;2023-03-23T15:13:57;14.30;99.90
22288;DHT22;11312;51.464;6.968;2023-03-23T15:16:26;14.40;99.90
22288;DHT22;11312;51.464;6.968;2023-03-23T15:19:20;14.20;99.90
22288;DHT22;11312;51.464;6.968;2023-03-23T15:21:49;14.60;99.90
22288;DHT22;11312;51.464;6.968;2023-03-23T15:24:34;14.60;99.90
22288;DHT22;11312;51.464;6.968;2023-03-23T15:27:14;14.70;99.90
22288;DHT22;11312;51.464;6.968;2023-03-23T15:29:52;15.00;99.90
22288;DHT22;11312;51.464;6.968;2023-03-23T15:34:49;15.10;99.90
22288;DHT22;11312;51.464;6.968;2023-03-23T15:39:50;14.80;99.90
22288;DHT22;11312;51.464;6.968;2023-03-23T15:42:27;14.80;99.90
22288;DHT22;11312;51.464;6.968;2023-03-23T15:47:45;14.80;99.90
22288;DHT22;11312;51.464;6.968;2023-03-23T15:52:47;14.80;99.90
22288;DHT22;11312;51.464;6.968;2023-03-23T15:55:24;14.80;99.90
22288;DHT22;11312;51.464;6.968;2023-03-23T15:57:51;14.80;99.90
22288;DHT22;11312;51.464;6.968;2023-03-23T16:00:19;14.70;99.90
22288;DHT22;11312;51.464;6.968;2023-03-23T16:02:46;14.60;99.90
22288;DHT22;11312;51.464;6.968;2023-03-23T16:05:13;14.60;99.90
22288;DHT22;11312;51.464;6.968;2023-03-23T16:07:39;14.70;99.90
22288;DHT22;11312;51.464;6.968;2023-03-23T16:10:06;14.60;99.90
22288;DHT22;11312;51.464;6.968;2023-03-23T16:12:32;14.60;99.90
22288;DHT22;11312;51.464;6.968;2023-03-23T16:14:58;14.50;99.90
22288;DHT22;11312;51.464;6.968;2023-03-23T16:17:24;14.40;99.90
22288;DHT22;11312;51.464;6.968;2023-03-23T16:19:50;14.40;99.90
22288;DHT22;11312;51.464;6.968;2023-03-23T16:22:16;14.30;99.90
22288;DHT22;11312;51.464;6.968;2023-03-23T16:24:42;14.30;99.90
22288;DHT22;11312;51.464;6.968;2023-03-23T16:27:13;14.30;99.90
22288;DHT22;11312;51.464;6.968;2023-03-23T16:29:39;14.30;99.90
22288;DHT22;11312;51.464;6.968;2023-03-23T16:32:04;14.30;99.90
22288;DHT22;11312;51.464;6.968;2023-03-23T16:34:31;14.20;99.90
22288;DHT22;11312;51.464;6.968;2023-03-23T16:36:58;14.20;99.90
22288;DHT22;11312;51.464;6.968;2023-03-23T16:39:23;14.20;99.90
22288;DHT22;11312;51.464;6.968;2023-03-23T16:41:49;14.20;99.90
22288;DHT22;11312;51.464;6.968;2023-03-23T16:44:15;14.10;99.90
22288;DHT22;11312;51.464;6.968;2023-03-23T16:46:41;14.10;99.90
22288;DHT22;11312;51.464;6.968;2023-03-23T16:49:06;14.00;99.90
22288;DHT22;11312;51.464;6.968;2023-03-23T16:51:32;14.00;99.90
22288;DHT22;11312;51.464;6.968;2023-03-23T16:53:58;13.90;99.90
22288;DHT22;11312;51.464;6.968;2023-03-23T16:56:23;13.90;99.90
22288;DHT22;11312;51.464;6.968;2023-03-23T16:58:49;13.80;99.90
22288;DHT22;11312;51.464;6.968;2023-03-23T17:01:14;13.80;99.90
22288;DHT22;11312;51.464;6.968;2023-03-23T17:03:40;13.90;99.90
22288;DHT22;11312;51.464;6.968;2023-03-23T17:06:07;14.00;99.90
22288;DHT22;11312;51.464;6.968;2023-03-23T17:08:33;13.90;99.90
22288;DHT22;11312;51.464;6.968;2023-03-23T17:10:59;13.90;99.90
22288;DHT22;11312;51.464;6.968;2023-03-23T17:13:25;13.80;99.90
22288;DHT22;11312;51.464;6.968;2023-03-23T17:15:53;13.70;99.90
22288;DHT22;11312;51.464;6.968;2023-03-23T17:18:19;13.60;99.90
22288;DHT22;11312;51.464;6.968;2023-03-23T17:20:45;13.50;99.90
22288;DHT22;11312;51.464;6.968;2023-03-23T17:23:11;13.60;99.90
22288;DHT22;11312;51.464;6.968;2023-03-23T17:25:37;13.70;99.90
22288;DHT22;11312;51.464;6.968;2023-03-23T17:28:02;13.70;99.90
22288;DHT22;11312;51.464;6.968;2023-03-23T17:30:28;13.60;99.90
22288;DHT22;11312;51.464;6.968;2023-03-23T17:32:54;13.70;99.90
22288;DHT22;11312;51.464;6.968;2023-03-23T17:35:20;13.70;99.90
22288;DHT22;11312;51.464;6.968;2023-03-23T17:37:46;13.70;99.90
22288;DHT22;11312;51.464;6.968;2023-03-23T17:40:12;13.50;99.90
22288;DHT22;11312;51.464;6.968;2023-03-23T17:42:38;13.40;99.90
22288;DHT22;11312;51.464;6.968;2023-03-23T17:45:05;13.50;99.90
22288;DHT22;11312;51.464;6.968;2023-03-23T17:47:32;13.40;99.90
22288;DHT22;11312;51.464;6.968;2023-03-23T17:49:58;13.30;99.90
22288;DHT22;11312;51.464;6.968;2023-03-23T17:52:24;13.20;99.90
22288;DHT22;11312;51.464;6.968;2023-03-23T17:54:49;13.30;99.90
22288;DHT22;11312;51.464;6.968;2023-03-23T17:57:15;13.20;99.90
22288;DHT22;11312;51.464;6.968;2023-03-23T17:59:41;13.20;99.90